Time;durP1;ratioP1;P1;durP2;ratioP2;P2;SDS_P1;SDS_P2;PMS_P1;PMS_P2;Temp;Humidity;BMP_temperature;BMP_pressure;BME280_temperature;BME280_humidity;BME280_pressure;Samples;Min_cycle;Max_cycle;Signal;HPM_P1;HPM_P2
2021/12/16 00:02:14;;;;;;;35.50;12.63;;;;;;;;;;4944767;28;20114;-91
2021/12/16 00:08:04;;;;;;;28.00;12.75;;;;;;;;;;4920447;29;20060;-91
2021/12/16 00:10:47;;;;;;;34.60;13.13;;;;;;;;;;4944106;28;20503;-91
2021/12/16 00:30:13;;;;;;;31.90;14.32;;;;;;;;;;4936250;29;20055;-90
2021/12/16 00:35:08;;;;;;;32.90;15.07;;;;;;;;;;4960046;28;20046;-87
2021/12/16 00:37:34;;;;;;;33.40;14.45;;;;;;;;;;4918242;29;20079;-87
2021/12/16 00:40:00;;;;;;;45.30;15.43;;;;;;;;;;4929789;29;20047;-88
2021/12/16 00:47:57;;;;;;;44.65;15.38;;;;;;;;;;4929859;29;20091;-88
2021/12/16 00:55:48;;;;;;;34.80;14.65;;;;;;;;;;4937526;29;20452;-88
2021/12/16 00:58:17;;;;;;;34.25;14.32;;;;;;;;;;4944144;28;20130;-88
2021/12/16 01:00:51;;;;;;;28.40;14.77;;;;;;;;;;4943474;29;20051;-88
2021/12/16 01:03:29;;;;;;;34.28;15.27;;;;;;;;;;4954949;28;20110;-89
2021/12/16 01:34:06;;;;;;;39.22;16.15;;;;;;;;;;4935665;28;20673;-88
2021/12/16 01:42:24;;;;;;;38.90;15.77;;;;;;;;;;4914880;29;20681;-87
2021/12/16 01:50:10;;;;;;;42.75;16.05;;;;;;;;;;4912249;29;20051;-87
2021/12/16 01:55:24;;;;;;;45.42;16.05;;;;;;;;;;4919048;29;20051;-88
2021/12/16 01:57:55;;;;;;;39.75;16.33;;;;;;;;;;4932038;29;20051;-88
2021/12/16 02:00:46;;;;;;;35.70;15.95;;;;;;;;;;4901265;29;20128;-88
2021/12/16 02:03:15;;;;;;;31.75;16.23;;;;;;;;;;4925700;29;20554;-90
2021/12/16 02:08:43;;;;;;;39.97;16.48;;;;;;;;;;4858005;29;20049;-90
2021/12/16 02:31:50;;;;;;;53.60;18.63;;;;;;;;;;4888957;29;20130;-89
2021/12/16 02:36:47;;;;;;;42.03;17.75;;;;;;;;;;4929266;28;20039;-90
2021/12/16 02:39:34;;;;;;;46.70;18.40;;;;;;;;;;4950608;28;20063;-89
2021/12/16 02:42:11;;;;;;;37.60;16.42;;;;;;;;;;4897623;29;20136;-90
2021/12/16 02:50:07;;;;;;;43.25;17.75;;;;;;;;;;4934030;28;20047;-89
2021/12/16 02:52:33;;;;;;;40.58;17.23;;;;;;;;;;4911951;29;20122;-89
2021/12/16 02:55:05;;;;;;;48.42;17.73;;;;;;;;;;4948386;28;20082;-89
2021/12/16 02:57:37;;;;;;;49.08;17.38;;;;;;;;;;4919607;29;20126;-89
2021/12/16 03:00:04;;;;;;;41.80;17.25;;;;;;;;;;4949859;28;20427;-89
2021/12/16 03:02:30;;;;;;;42.30;17.55;;;;;;;;;;4946686;28;20075;-90
2021/12/16 03:04:56;;;;;;;43.92;16.63;;;;;;;;;;4929040;29;20149;-89
2021/12/16 03:07:22;;;;;;;41.90;15.70;;;;;;;;;;4915843;29;20095;-90
2021/12/16 03:18:30;;;;;;;42.53;15.30;;;;;;;;;;4956687;28;20058;-87
2021/12/16 03:21:02;;;;;;;38.80;14.88;;;;;;;;;;4918655;29;20062;-88
2021/12/16 03:23:48;;;;;;;34.78;14.05;;;;;;;;;;4909621;29;20036;-89
2021/12/16 03:34:56;;;;;;;42.53;14.07;;;;;;;;;;4924226;29;20054;-89
2021/12/16 03:37:17;;;;;;;32.28;13.52;;;;;;;;;;4904727;29;20047;-88
2021/12/16 03:39:50;;;;;;;44.72;15.10;;;;;;;;;;4928037;28;20510;-88
2021/12/16 03:42:23;;;;;;;38.00;12.88;;;;;;;;;;4954419;28;20070;-88
2021/12/16 03:44:54;;;;;;;36.30;14.15;;;;;;;;;;4911014;29;20114;-88
2021/12/16 03:47:23;;;;;;;33.33;14.23;;;;;;;;;;4945254;28;20091;-88
2021/12/16 03:49:50;;;;;;;27.42;12.70;;;;;;;;;;4950811;28;20054;-88
2021/12/16 03:52:17;;;;;;;31.85;14.20;;;;;;;;;;4927675;29;20039;-87
2021/12/16 03:54:49;;;;;;;38.08;13.50;;;;;;;;;;4924769;29;20048;-88
2021/12/16 03:57:17;;;;;;;36.90;13.52;;;;;;;;;;4956289;28;20043;-88
2021/12/16 03:59:43;;;;;;;39.45;13.80;;;;;;;;;;4948709;28;20583;-88
2021/12/16 04:02:11;;;;;;;38.47;14.63;;;;;;;;;;4921643;29;20107;-88
2021/12/16 04:04:38;;;;;;;43.95;14.98;;;;;;;;;;4931094;28;20050;-87
2021/12/16 04:07:05;;;;;;;36.05;13.10;;;;;;;;;;4938681;29;20504;-87
2021/12/16 04:09:33;;;;;;;40.08;14.40;;;;;;;;;;4923397;29;20131;-87
2021/12/16 04:12:20;;;;;;;34.33;12.77;;;;;;;;;;4923788;28;20051;-88
2021/12/16 04:14:59;;;;;;;33.80;13.77;;;;;;;;;;4919601;29;20416;-87
2021/12/16 04:17:27;;;;;;;42.45;14.45;;;;;;;;;;4954600;28;20506;-88
2021/12/16 04:19:53;;;;;;;41.97;15.15;;;;;;;;;;4926763;29;20054;-88
2021/12/16 04:22:30;;;;;;;34.80;14.30;;;;;;;;;;4916409;29;20134;-88
2021/12/16 04:24:56;;;;;;;36.33;14.50;;;;;;;;;;4929563;29;20054;-87
2021/12/16 04:27:22;;;;;;;42.83;14.55;;;;;;;;;;4935074;29;20054;-88
2021/12/16 04:29:48;;;;;;;34.97;14.80;;;;;;;;;;4928984;29;20043;-88
2021/12/16 04:32:16;;;;;;;36.97;14.73;;;;;;;;;;4931727;29;20047;-88
2021/12/16 04:34:43;;;;;;;44.22;17.40;;;;;;;;;;4917323;29;20035;-88
2021/12/16 04:37:09;;;;;;;35.80;15.30;;;;;;;;;;4928647;29;20043;-88
2021/12/16 04:39:36;;;;;;;40.67;15.30;;;;;;;;;;4913083;29;20044;-88
2021/12/16 04:42:04;;;;;;;41.13;15.25;;;;;;;;;;4929734;29;20141;-88
2021/12/16 04:44:30;;;;;;;43.00;16.27;;;;;;;;;;4913525;29;20040;-88
2021/12/16 04:46:57;;;;;;;43.97;17.13;;;;;;;;;;4914050;29;20059;-89
2021/12/16 04:49:24;;;;;;;38.63;15.50;;;;;;;;;;4931412;29;20046;-90
2021/12/16 04:51:51;;;;;;;36.75;15.85;;;;;;;;;;4909941;29;20052;-88
2021/12/16 04:54:18;;;;;;;42.63;16.73;;;;;;;;;;4888104;29;20075;-88
2021/12/16 04:56:45;;;;;;;40.85;15.55;;;;;;;;;;4930221;29;20508;-88
2021/12/16 04:59:12;;;;;;;34.95;15.43;;;;;;;;;;4914348;28;20568;-90
2021/12/16 05:01:40;;;;;;;37.85;15.85;;;;;;;;;;4929631;29;20516;-87
2021/12/16 05:04:06;;;;;;;47.03;15.52;;;;;;;;;;4930718;29;20039;-89
2021/12/16 05:10:01;;;;;;;41.05;15.60;;;;;;;;;;4977716;28;20115;-88
2021/12/16 05:12:15;;;;;;;46.35;16.38;;;;;;;;;;4976559;28;20047;-89
2021/12/16 05:14:42;;;;;;;40.38;15.40;;;;;;;;;;4930660;28;20039;-89
2021/12/16 05:17:22;;;;;;;30.63;15.52;;;;;;;;;;4950256;28;20035;-89
2021/12/16 05:19:51;;;;;;;34.53;16.08;;;;;;;;;;4949505;28;20472;-88
2021/12/16 05:25:04;;;;;;;33.58;16.38;;;;;;;;;;4945811;28;20459;-88
2021/12/16 05:27:30;;;;;;;40.08;16.35;;;;;;;;;;4975632;28;20062;-88
2021/12/16 05:29:56;;;;;;;34.15;14.68;;;;;;;;;;4945934;28;20047;-87
2021/12/16 05:32:23;;;;;;;32.13;14.20;;;;;;;;;;4962186;28;20130;-88
2021/12/16 05:34:49;;;;;;;36.35;14.82;;;;;;;;;;4931225;28;20047;-87
2021/12/16 05:37:15;;;;;;;38.45;17.27;;;;;;;;;;4948989;28;20207;-88
2021/12/16 05:39:41;;;;;;;39.25;18.55;;;;;;;;;;4931595;29;20055;-87
2021/12/16 05:42:08;;;;;;;33.22;14.88;;;;;;;;;;4945115;28;20466;-87
2021/12/16 05:44:34;;;;;;;33.75;14.95;;;;;;;;;;4978495;28;20035;-88
2021/12/16 05:47:00;;;;;;;36.42;15.55;;;;;;;;;;4947667;28;20040;-87
2021/12/16 05:49:26;;;;;;;32.42;15.55;;;;;;;;;;4946987;28;20511;-87
2021/12/16 05:51:52;;;;;;;40.83;15.38;;;;;;;;;;4945733;28;20125;-88
2021/12/16 05:54:19;;;;;;;38.53;13.88;;;;;;;;;;4946134;28;20366;-87
2021/12/16 05:56:47;;;;;;;33.90;14.65;;;;;;;;;;4946483;28;20078;-83
2021/12/16 05:59:17;;;;;;;38.97;15.98;;;;;;;;;;4948081;28;20122;-82
2021/12/16 06:01:43;;;;;;;38.00;14.38;;;;;;;;;;4947413;28;20051;-81
2021/12/16 06:04:09;;;;;;;29.00;13.90;;;;;;;;;;4979900;28;20082;-81
2021/12/16 06:06:37;;;;;;;50.05;14.18;;;;;;;;;;4952502;28;20055;-82
2021/12/16 06:09:05;;;;;;;33.03;14.32;;;;;;;;;;4949027;28;20106;-81
2021/12/16 06:11:41;;;;;;;38.70;14.73;;;;;;;;;;4952218;28;20518;-82
2021/12/16 06:14:38;;;;;;;33.35;14.68;;;;;;;;;;4948103;28;21388;-82
2021/12/16 06:27:58;;;;;;;33.33;13.45;;;;;;;;;;4931010;29;20066;-81
2021/12/16 06:30:26;;;;;;;37.83;14.88;;;;;;;;;;4967712;28;20035;-83
2021/12/16 06:32:52;;;;;;;27.75;14.57;;;;;;;;;;4948376;29;20090;-81
2021/12/16 06:35:19;;;;;;;36.17;14.98;;;;;;;;;;4932422;29;20138;-83
2021/12/16 06:37:45;;;;;;;32.05;14.23;;;;;;;;;;4948073;29;20051;-83
2021/12/16 06:40:11;;;;;;;40.97;14.02;;;;;;;;;;4948754;29;20058;-82
2021/12/16 06:42:40;;;;;;;38.65;15.00;;;;;;;;;;4947745;29;20048;-82
2021/12/16 06:45:12;;;;;;;32.28;14.63;;;;;;;;;;4948313;29;20102;-82
2021/12/16 06:47:46;;;;;;;36.67;15.18;;;;;;;;;;4947805;29;20066;-82
2021/12/16 06:50:23;;;;;;;34.85;15.85;;;;;;;;;;4947923;29;20047;-80
2021/12/16 06:52:51;;;;;;;30.85;15.50;;;;;;;;;;4948364;28;20562;-80
2021/12/16 06:56:08;;;;;;;41.40;17.52;;;;;;;;;;4947776;29;20051;-80
2021/12/16 06:58:33;;;;;;;32.92;14.98;;;;;;;;;;4937656;29;20431;-80
2021/12/16 07:01:01;;;;;;;45.45;15.52;;;;;;;;;;4947180;29;20126;-81
2021/12/16 07:03:38;;;;;;;35.53;16.88;;;;;;;;;;4947695;28;20043;-80
2021/12/16 07:06:05;;;;;;;45.97;17.35;;;;;;;;;;4931778;29;20055;-81
2021/12/16 07:08:31;;;;;;;32.72;15.68;;;;;;;;;;4947024;29;20174;-80
2021/12/16 07:10:57;;;;;;;34.60;15.98;;;;;;;;;;4949534;28;20046;-80
2021/12/16 07:13:35;;;;;;;38.85;15.90;;;;;;;;;;4948635;28;20044;-80
2021/12/16 07:16:01;;;;;;;46.85;17.27;;;;;;;;;;4948016;29;20062;-80
2021/12/16 07:18:27;;;;;;;33.53;16.60;;;;;;;;;;4947770;29;20047;-81
2021/12/16 07:20:53;;;;;;;40.88;15.77;;;;;;;;;;4947999;28;20118;-80
2021/12/16 07:23:20;;;;;;;36.67;16.15;;;;;;;;;;4958921;28;20047;-80
2021/12/16 07:25:46;;;;;;;35.50;15.85;;;;;;;;;;4953396;29;20055;-81
2021/12/16 07:28:12;;;;;;;34.72;15.45;;;;;;;;;;4952155;29;20047;-81
2021/12/16 07:30:39;;;;;;;40.20;17.00;;;;;;;;;;4952330;29;20047;-81
2021/12/16 07:33:06;;;;;;;32.22;15.85;;;;;;;;;;4953118;28;20134;-82
2021/12/16 07:35:33;;;;;;;37.47;16.40;;;;;;;;;;4952524;28;20055;-81
2021/12/16 07:37:59;;;;;;;33.80;16.10;;;;;;;;;;4951435;28;20039;-79
2021/12/16 07:40:26;;;;;;;48.08;16.00;;;;;;;;;;4952025;29;20102;-82
2021/12/16 07:45:33;;;;;;;42.35;15.10;;;;;;;;;;4952789;29;20483;-81
2021/12/16 07:47:59;;;;;;;41.85;16.65;;;;;;;;;;4952362;28;20051;-81
2021/12/16 07:50:26;;;;;;;37.10;15.88;;;;;;;;;;4951877;29;20036;-79
2021/12/16 07:52:52;;;;;;;42.15;15.48;;;;;;;;;;4951001;28;20039;-81
2021/12/16 07:55:19;;;;;;;39.30;15.27;;;;;;;;;;4951945;28;20043;-81
2021/12/16 07:57:45;;;;;;;27.33;15.13;;;;;;;;;;4951215;29;20118;-81
2021/12/16 08:00:38;;;;;;;47.40;15.50;;;;;;;;;;4950801;29;20039;-81
2021/12/16 08:03:06;;;;;;;41.88;15.43;;;;;;;;;;4932674;29;20062;-81
2021/12/16 08:05:35;;;;;;;54.17;16.42;;;;;;;;;;4949759;29;20044;-81
2021/12/16 08:08:01;;;;;;;50.50;17.48;;;;;;;;;;4951251;29;20337;-81
2021/12/16 08:10:27;;;;;;;35.20;15.77;;;;;;;;;;4950464;29;20051;-81
2021/12/16 08:12:54;;;;;;;43.67;15.68;;;;;;;;;;4950265;29;20561;-81
2021/12/16 08:15:20;;;;;;;55.35;16.13;;;;;;;;;;4933291;29;20451;-81
2021/12/16 08:17:46;;;;;;;43.80;16.48;;;;;;;;;;4949991;29;20526;-81
2021/12/16 08:20:16;;;;;;;62.15;18.38;;;;;;;;;;4950900;29;20090;-82
2021/12/16 08:22:44;;;;;;;57.88;17.50;;;;;;;;;;4949336;29;20055;-81
2021/12/16 08:25:11;;;;;;;54.38;16.73;;;;;;;;;;4950344;28;20054;-81
2021/12/16 08:27:39;;;;;;;50.92;17.05;;;;;;;;;;4951939;29;20563;-81
2021/12/16 08:30:06;;;;;;;57.35;18.27;;;;;;;;;;4951885;28;20087;-80
2021/12/16 08:32:38;;;;;;;69.25;19.50;;;;;;;;;;4951971;29;20055;-81
2021/12/16 08:35:06;;;;;;;48.92;17.52;;;;;;;;;;4950065;28;20055;-80
2021/12/16 08:37:32;;;;;;;41.13;17.55;;;;;;;;;;4951433;29;20138;-80
2021/12/16 08:39:59;;;;;;;62.40;20.27;;;;;;;;;;4950887;29;20121;-81
2021/12/16 08:42:25;;;;;;;52.25;18.08;;;;;;;;;;4952486;29;20038;-82
2021/12/16 08:44:51;;;;;;;58.25;18.52;;;;;;;;;;4950876;29;20054;-84
2021/12/16 08:47:18;;;;;;;64.72;20.38;;;;;;;;;;4950447;29;20051;-83
2021/12/16 08:49:48;;;;;;;48.42;17.88;;;;;;;;;;4950241;29;20534;-85
2021/12/16 08:52:16;;;;;;;82.22;23.42;;;;;;;;;;4950111;29;20054;-84
2021/12/16 08:54:43;;;;;;;71.97;21.20;;;;;;;;;;4950600;29;20130;-85
2021/12/16 08:57:10;;;;;;;62.35;20.92;;;;;;;;;;4948980;29;20463;-83
2021/12/16 08:59:37;;;;;;;63.78;22.15;;;;;;;;;;4951498;29;20055;-81
2021/12/16 09:02:03;;;;;;;65.70;20.77;;;;;;;;;;4933015;29;20071;-82
2021/12/16 09:04:30;;;;;;;79.53;23.77;;;;;;;;;;4902426;29;20040;-81
2021/12/16 09:06:58;;;;;;;65.50;20.52;;;;;;;;;;4966461;28;20050;-81
2021/12/16 09:09:24;;;;;;;72.15;23.35;;;;;;;;;;4937976;29;20067;-81
2021/12/16 09:12:09;;;;;;;85.18;22.13;;;;;;;;;;4933666;28;20381;-81
2021/12/16 09:14:35;;;;;;;81.82;22.00;;;;;;;;;;4932614;29;20546;-82
2021/12/16 09:17:02;;;;;;;90.43;24.17;;;;;;;;;;4950915;29;20167;-82
2021/12/16 09:19:28;;;;;;;71.60;22.52;;;;;;;;;;4917342;29;20443;-81
2021/12/16 09:21:54;;;;;;;84.07;24.63;;;;;;;;;;4950263;28;20416;-81
2021/12/16 09:24:20;;;;;;;96.70;24.27;;;;;;;;;;4965397;28;20047;-81
2021/12/16 09:26:47;;;;;;;96.35;25.33;;;;;;;;;;4932591;29;20047;-81
2021/12/16 09:29:13;;;;;;;68.10;21.85;;;;;;;;;;4950650;28;20099;-81
2021/12/16 09:31:39;;;;;;;100.13;23.95;;;;;;;;;;4949454;28;20530;-81
2021/12/16 09:34:08;;;;;;;77.55;24.63;;;;;;;;;;4933389;28;20047;-81
2021/12/16 09:36:40;;;;;;;86.70;23.23;;;;;;;;;;4947847;28;20102;-81
2021/12/16 09:39:08;;;;;;;90.20;22.52;;;;;;;;;;4949791;28;20106;-80
2021/12/16 09:41:34;;;;;;;72.72;23.38;;;;;;;;;;4932827;28;20400;-81
2021/12/16 09:44:00;;;;;;;126.30;26.13;;;;;;;;;;4949801;28;20057;-81
2021/12/16 09:46:29;;;;;;;73.85;24.17;;;;;;;;;;4950114;28;20043;-81
2021/12/16 09:48:56;;;;;;;79.18;24.60;;;;;;;;;;4932026;28;20049;-81
2021/12/16 09:51:23;;;;;;;74.15;24.30;;;;;;;;;;4932839;28;20051;-81
2021/12/16 09:53:54;;;;;;;102.35;23.35;;;;;;;;;;4949162;28;20047;-81
2021/12/16 09:56:22;;;;;;;114.38;24.63;;;;;;;;;;4950214;28;20054;-81
2021/12/16 09:58:49;;;;;;;94.97;22.90;;;;;;;;;;4951045;28;20566;-81
2021/12/16 10:01:15;;;;;;;95.80;21.83;;;;;;;;;;4931969;28;20039;-81
2021/12/16 10:03:43;;;;;;;89.05;21.55;;;;;;;;;;4949775;28;20463;-82
2021/12/16 10:06:09;;;;;;;93.93;23.90;;;;;;;;;;4931334;29;20062;-81
2021/12/16 10:08:36;;;;;;;79.78;23.67;;;;;;;;;;4932169;28;20051;-81
2021/12/16 10:11:03;;;;;;;84.75;21.52;;;;;;;;;;4931691;28;20047;-81
2021/12/16 10:18:37;;;;;;;106.18;24.75;;;;;;;;;;4970470;28;20055;-81
2021/12/16 10:21:05;;;;;;;79.30;24.23;;;;;;;;;;4953801;28;20047;-82
2021/12/16 10:23:33;;;;;;;67.82;23.10;;;;;;;;;;4970613;28;20065;-80
2021/12/16 10:26:07;;;;;;;82.95;24.80;;;;;;;;;;4972634;28;20043;-81
2021/12/16 10:28:34;;;;;;;92.15;26.85;;;;;;;;;;4970264;28;20055;-81
2021/12/16 10:31:05;;;;;;;101.90;26.73;;;;;;;;;;4949643;28;20139;-81
2021/12/16 10:33:37;;;;;;;101.53;24.38;;;;;;;;;;4934169;28;20043;-81
2021/12/16 10:36:14;;;;;;;101.70;26.08;;;;;;;;;;4934121;29;20526;-80
2021/12/16 10:38:46;;;;;;;96.50;24.92;;;;;;;;;;4951872;28;20043;-81
2021/12/16 10:41:16;;;;;;;125.57;25.40;;;;;;;;;;4950780;28;20047;-81
2021/12/16 10:43:50;;;;;;;93.57;23.95;;;;;;;;;;4947321;29;20046;-81
2021/12/16 10:46:18;;;;;;;94.32;26.13;;;;;;;;;;4959309;28;20503;-81
2021/12/16 10:48:49;;;;;;;90.97;22.75;;;;;;;;;;4968849;28;20117;-82
2021/12/16 10:51:21;;;;;;;93.47;26.17;;;;;;;;;;4958429;28;20058;-82
2021/12/16 10:53:51;;;;;;;99.07;26.42;;;;;;;;;;4932125;28;20134;-82
2021/12/16 10:56:19;;;;;;;108.78;26.15;;;;;;;;;;4917309;28;20130;-82
2021/12/16 10:58:57;;;;;;;117.38;27.00;;;;;;;;;;4930626;29;20043;-81
2021/12/16 11:01:45;;;;;;;81.35;25.58;;;;;;;;;;4931627;29;20511;-82
2021/12/16 11:04:29;;;;;;;89.88;24.20;;;;;;;;;;4949156;29;20546;-82
2021/12/16 11:06:55;;;;;;;;;;;;;;;;;;4948532;28;20059;-82
2021/12/16 11:09:23;;;;;;;74.93;22.77;;;;;;;;;;4932481;28;19957;-82
2021/12/16 11:12:04;;;;;;;99.38;25.70;;;;;;;;;;4948496;28;20047;-81
2021/12/16 11:14:30;;;;;;;104.28;26.85;;;;;;;;;;4949336;28;20543;-83
2021/12/16 11:16:57;;;;;;;108.60;26.70;;;;;;;;;;4950886;28;20523;-82
2021/12/16 11:19:44;;;;;;;115.90;25.88;;;;;;;;;;4934584;29;20078;-81
2021/12/16 11:22:19;;;;;;;93.35;25.20;;;;;;;;;;4932171;29;20156;-81
2021/12/16 11:24:46;;;;;;;84.15;23.83;;;;;;;;;;4948812;28;20065;-82
2021/12/16 11:27:31;;;;;;;96.65;24.70;;;;;;;;;;4949525;28;20142;-81
2021/12/16 11:29:59;;;;;;;100.32;24.17;;;;;;;;;;4946965;28;20105;-81
2021/12/16 11:32:40;;;;;;;74.93;22.65;;;;;;;;;;4931328;29;20051;-81
2021/12/16 11:35:26;;;;;;;95.85;22.73;;;;;;;;;;4948994;28;20403;-81
2021/12/16 11:37:53;;;;;;;99.18;23.70;;;;;;;;;;4948345;28;20095;-81
2021/12/16 11:40:19;;;;;;;66.22;19.67;;;;;;;;;;4947881;28;20479;-81
2021/12/16 11:42:57;;;;;;;88.18;22.95;;;;;;;;;;4931190;28;20059;-82
2021/12/16 11:45:31;;;;;;;111.57;25.38;;;;;;;;;;4948296;28;20051;-81
2021/12/16 11:47:57;;;;;;;98.18;23.15;;;;;;;;;;4931458;28;20051;-82
2021/12/16 11:50:31;;;;;;;78.68;21.08;;;;;;;;;;4947873;28;20036;-81
2021/12/16 11:52:58;;;;;;;89.65;20.85;;;;;;;;;;4948593;29;20138;-81
2021/12/16 11:55:25;;;;;;;114.07;21.98;;;;;;;;;;4931287;29;20518;-81
2021/12/16 11:58:00;;;;;;;76.57;20.98;;;;;;;;;;4930632;29;20489;-81
2021/12/16 12:00:31;;;;;;;91.18;24.02;;;;;;;;;;4935197;28;20404;-82
2021/12/16 12:03:00;;;;;;;113.15;27.40;;;;;;;;;;4947689;28;20047;-80
2021/12/16 12:05:31;;;;;;;113.45;25.00;;;;;;;;;;4948209;28;20054;-81
2021/12/16 12:08:21;;;;;;;108.25;26.77;;;;;;;;;;4930276;29;20055;-82
2021/12/16 12:10:47;;;;;;;127.60;26.92;;;;;;;;;;4951618;29;20198;-83
2021/12/16 12:13:19;;;;;;;85.90;25.35;;;;;;;;;;4951926;28;20031;-82
2021/12/16 12:15:51;;;;;;;123.20;28.33;;;;;;;;;;4950592;29;20043;-82
2021/12/16 12:18:49;;;;;;;127.05;24.75;;;;;;;;;;4934435;29;21228;-83
2021/12/16 12:21:23;;;;;;;104.85;24.20;;;;;;;;;;4918705;29;20433;-82
2021/12/16 12:23:54;;;;;;;95.25;22.08;;;;;;;;;;4951586;29;20515;-83
2021/12/16 12:26:21;;;;;;;161.65;24.75;;;;;;;;;;4934331;29;20046;-82
2021/12/16 12:28:49;;;;;;;116.20;24.80;;;;;;;;;;4933169;29;20047;-82
2021/12/16 12:31:17;;;;;;;120.03;22.70;;;;;;;;;;4951496;29;20544;-83
2021/12/16 12:33:43;;;;;;;121.88;22.33;;;;;;;;;;4950537;29;20040;-83
2021/12/16 12:36:09;;;;;;;83.45;22.55;;;;;;;;;;4951338;29;20070;-82
2021/12/16 12:38:37;;;;;;;95.47;20.67;;;;;;;;;;4953201;29;20052;-82
2021/12/16 12:41:04;;;;;;;100.35;24.67;;;;;;;;;;4951650;29;20139;-81
2021/12/16 12:43:33;;;;;;;78.18;23.55;;;;;;;;;;4933435;29;20046;-81
2021/12/16 12:46:00;;;;;;;55.67;20.65;;;;;;;;;;4950923;29;20074;-82
2021/12/16 12:48:26;;;;;;;58.28;22.20;;;;;;;;;;4951570;29;20776;-81
2021/12/16 12:50:57;;;;;;;52.17;20.55;;;;;;;;;;4964297;28;20444;-82
2021/12/16 12:53:33;;;;;;;46.95;22.13;;;;;;;;;;4953277;28;20323;-81
2021/12/16 12:56:08;;;;;;;54.97;22.20;;;;;;;;;;4969794;28;20061;-82
2021/12/16 12:58:36;;;;;;;43.70;19.08;;;;;;;;;;4954017;28;20393;-81
2021/12/16 13:01:04;;;;;;;42.33;20.00;;;;;;;;;;4951122;29;20098;-81
2021/12/16 13:03:35;;;;;;;45.65;19.88;;;;;;;;;;4933289;29;20396;-81
2021/12/16 13:06:06;;;;;;;33.63;17.35;;;;;;;;;;4942389;29;20064;-81
2021/12/16 13:08:34;;;;;;;35.38;16.83;;;;;;;;;;4929575;29;20058;-82
2021/12/16 13:11:03;;;;;;;37.33;18.80;;;;;;;;;;4931591;29;20146;-82
2021/12/16 13:13:34;;;;;;;41.13;18.02;;;;;;;;;;4931073;29;20388;-83
2021/12/16 13:16:40;;;;;;;33.97;16.63;;;;;;;;;;4914871;29;20058;-83
2021/12/16 13:25:53;;;;;;;39.13;17.35;;;;;;;;;;4931201;29;20165;-81
2021/12/16 13:28:05;;;;;;;44.13;18.88;;;;;;;;;;4931320;29;20059;-81
2021/12/16 13:30:37;;;;;;;36.10;17.05;;;;;;;;;;4945433;29;20150;-82
2021/12/16 13:33:19;;;;;;;37.58;18.33;;;;;;;;;;4931232;29;20099;-83
2021/12/16 13:35:50;;;;;;;42.80;19.63;;;;;;;;;;4930436;29;20310;-81
2021/12/16 13:38:18;;;;;;;47.70;19.95;;;;;;;;;;4925006;29;20040;-82
2021/12/16 13:40:45;;;;;;;39.90;18.70;;;;;;;;;;4912195;29;20063;-81
2021/12/16 13:43:30;;;;;;;42.90;19.67;;;;;;;;;;4929809;29;20059;-81
2021/12/16 13:46:49;;;;;;;62.15;22.63;;;;;;;;;;4929984;29;20551;-81
2021/12/16 14:03:24;;;;;;;39.90;17.00;;;;;;;;;;4909561;29;20423;-81
2021/12/16 14:08:43;;;;;;;41.25;18.92;;;;;;;;;;4946969;29;20435;-81
2021/12/16 14:17:41;;;;;;;42.55;20.00;;;;;;;;;;4943638;29;20145;-80
2021/12/16 14:23:26;;;;;;;53.80;22.08;;;;;;;;;;4948856;28;20035;-81
2021/12/16 14:26:14;;;;;;;48.95;22.95;;;;;;;;;;4946956;29;20507;-81
2021/12/16 14:37:46;;;;;;;50.88;22.98;;;;;;;;;;4907740;29;20131;-80
2021/12/16 14:40:39;;;;;;;47.72;19.55;;;;;;;;;;4902976;29;20073;-81
2021/12/16 14:43:34;;;;;;;53.92;21.88;;;;;;;;;;4954665;28;20157;-81
2021/12/16 14:46:04;;;;;;;;;;;;;;;;;;4967442;28;20047;-81
2021/12/16 14:48:35;;;;;;;59.28;20.02;;;;;;;;;;4948160;28;20398;-82
2021/12/16 14:51:06;;;;;;;68.05;22.23;;;;;;;;;;4948424;28;20256;-82
2021/12/16 14:53:35;;;;;;;58.33;21.42;;;;;;;;;;4949793;28;20047;-82
2021/12/16 14:56:12;;;;;;;75.53;23.38;;;;;;;;;;4948310;28;20043;-82
2021/12/16 14:58:39;;;;;;;76.75;24.80;;;;;;;;;;4962166;28;20118;-82
2021/12/16 15:01:09;;;;;;;80.72;24.55;;;;;;;;;;4963987;28;20078;-82
2021/12/16 15:03:39;;;;;;;73.43;25.33;;;;;;;;;;4963494;28;20557;-81
2021/12/16 15:06:10;;;;;;;78.70;26.02;;;;;;;;;;4962938;28;20054;-81
2021/12/16 15:08:47;;;;;;;104.57;27.67;;;;;;;;;;4945786;28;20090;-82
2021/12/16 15:11:34;;;;;;;113.40;29.08;;;;;;;;;;4955709;28;20063;-83
2021/12/16 15:14:05;;;;;;;93.93;26.70;;;;;;;;;;4978473;28;20045;-83
2021/12/16 15:44:04;;;;;;;158.25;29.25;;;;;;;;;;4943362;28;20044;-84
2021/12/16 15:46:30;;;;;;;123.35;30.23;;;;;;;;;;4945476;28;21886;-84
2021/12/16 15:48:56;;;;;;;88.40;26.85;;;;;;;;;;4942073;28;20047;-82
2021/12/16 15:51:24;;;;;;;146.98;30.05;;;;;;;;;;4948687;28;20054;-83
2021/12/16 15:53:59;;;;;;;100.55;28.75;;;;;;;;;;4944466;28;20562;-83
2021/12/16 15:56:37;;;;;;;114.97;27.98;;;;;;;;;;4945594;28;20047;-84
2021/12/16 15:59:03;;;;;;;82.90;26.30;;;;;;;;;;4944247;28;20051;-80
2021/12/16 16:01:32;;;;;;;86.32;27.85;;;;;;;;;;4944746;28;20102;-85
2021/12/16 16:04:00;;;;;;;108.72;28.98;;;;;;;;;;4948288;28;20495;-84
2021/12/16 16:06:27;;;;;;;96.47;28.73;;;;;;;;;;4944964;29;20059;-84
2021/12/16 16:09:01;;;;;;;109.55;30.15;;;;;;;;;;4946364;28;20582;-86
2021/12/16 16:11:29;;;;;;;112.07;29.65;;;;;;;;;;4933649;29;20039;-82
2021/12/16 16:14:00;;;;;;;104.18;28.63;;;;;;;;;;4948401;28;20126;-83
2021/12/16 16:16:31;;;;;;;109.78;28.45;;;;;;;;;;4930788;29;20101;-85
2021/12/16 16:19:00;;;;;;;86.03;28.45;;;;;;;;;;4947175;29;20630;-85
2021/12/16 16:21:32;;;;;;;98.68;28.45;;;;;;;;;;4945262;28;20062;-81
2021/12/16 16:24:01;;;;;;;103.82;29.23;;;;;;;;;;4947463;28;20057;-83
2021/12/16 16:26:27;;;;;;;77.78;25.83;;;;;;;;;;4947356;28;20071;-82
2021/12/16 16:28:59;;;;;;;82.00;25.05;;;;;;;;;;4945472;29;20137;-81
2021/12/16 16:31:26;;;;;;;89.60;27.52;;;;;;;;;;4928215;29;20593;-80
2021/12/16 16:33:52;;;;;;;78.80;24.23;;;;;;;;;;4952534;28;20045;-82
2021/12/16 16:36:19;;;;;;;83.57;25.88;;;;;;;;;;4953014;28;20047;-82
2021/12/16 16:38:48;;;;;;;68.32;23.48;;;;;;;;;;4948253;28;20543;-83
2021/12/16 16:41:15;;;;;;;50.45;19.45;;;;;;;;;;4949935;28;20527;-82
2021/12/16 16:43:48;;;;;;;62.67;21.40;;;;;;;;;;4950043;28;20054;-82
2021/12/16 16:46:29;;;;;;;64.40;22.85;;;;;;;;;;4945339;28;20039;-82
2021/12/16 16:51:30;;;;;;;63.22;24.30;;;;;;;;;;4946950;28;20157;-81
2021/12/16 16:54:04;;;;;;;60.25;22.42;;;;;;;;;;4948907;28;20058;-83
2021/12/16 16:56:33;;;;;;;57.63;21.60;;;;;;;;;;4945737;28;20051;-84
2021/12/16 16:59:05;;;;;;;47.63;18.88;;;;;;;;;;4979230;28;20055;-84
2021/12/16 17:01:32;;;;;;;42.17;17.63;;;;;;;;;;4979231;28;20841;-84
2021/12/16 17:04:00;;;;;;;40.45;17.02;;;;;;;;;;4948679;28;20122;-85
2021/12/16 17:06:27;;;;;;;34.15;15.27;;;;;;;;;;4946570;28;20062;-84
2021/12/16 17:08:55;;;;;;;33.00;14.60;;;;;;;;;;4945272;28;20055;-83
2021/12/16 17:11:23;;;;;;;28.98;13.65;;;;;;;;;;4945732;28;20537;-83
2021/12/16 17:13:59;;;;;;;29.40;14.18;;;;;;;;;;4978717;28;20050;-84
2021/12/16 17:19:12;;;;;;;27.75;14.73;;;;;;;;;;4977684;28;20079;-86
2021/12/16 17:21:48;;;;;;;28.38;13.73;;;;;;;;;;4948493;28;20067;-83
2021/12/16 17:24:16;;;;;;;26.90;13.60;;;;;;;;;;4892418;29;20084;-82
2021/12/16 17:26:48;;;;;;;28.63;13.63;;;;;;;;;;4909693;29;20059;-84
2021/12/16 17:29:23;;;;;;;22.17;12.10;;;;;;;;;;4906692;29;20056;-81
2021/12/16 17:31:57;;;;;;;27.65;13.23;;;;;;;;;;4908161;29;20989;-85
2021/12/16 17:34:28;;;;;;;24.42;14.13;;;;;;;;;;4924437;29;20044;-82
2021/12/16 17:36:56;;;;;;;25.95;12.68;;;;;;;;;;4939248;28;20055;-84
2021/12/16 17:39:26;;;;;;;27.75;13.55;;;;;;;;;;4921361;29;20508;-86
2021/12/16 17:42:04;;;;;;;27.15;13.52;;;;;;;;;;4940039;29;20444;-81
2021/12/16 17:44:30;;;;;;;25.90;13.32;;;;;;;;;;4925204;29;20099;-85
2021/12/16 17:47:00;;;;;;;22.02;12.18;;;;;;;;;;4924822;29;20130;-87
2021/12/16 17:49:28;;;;;;;26.75;14.85;;;;;;;;;;4924569;29;20421;-84
2021/12/16 17:51:54;;;;;;;27.83;16.15;;;;;;;;;;4931187;29;20512;-82
2021/12/16 17:54:21;;;;;;;29.00;15.45;;;;;;;;;;4935704;29;20908;-86
2021/12/16 17:56:53;;;;;;;30.30;15.52;;;;;;;;;;4955269;29;20043;-85
2021/12/16 17:59:29;;;;;;;27.58;14.20;;;;;;;;;;4931906;29;20055;-82
2021/12/16 18:01:55;;;;;;;26.38;14.48;;;;;;;;;;4943684;28;20097;-85
2021/12/16 18:04:23;;;;;;;29.00;15.02;;;;;;;;;;4958469;28;20594;-85
2021/12/16 18:06:51;;;;;;;32.60;15.40;;;;;;;;;;4962870;28;20066;-83
2021/12/16 18:09:17;;;;;;;28.75;14.23;;;;;;;;;;4950964;28;20043;-83
2021/12/16 18:11:49;;;;;;;29.48;14.48;;;;;;;;;;4941598;28;20058;-86
2021/12/16 18:14:26;;;;;;;26.70;13.60;;;;;;;;;;4959357;28;20047;-86
2021/12/16 18:16:55;;;;;;;27.15;13.35;;;;;;;;;;4958222;28;20134;-83
2021/12/16 18:19:26;;;;;;;;;;;;;;;;;;4947085;28;20061;-88